sensor_id;sensor_type;location;lat;lon;timestamp;pressure;altitude;pressure_sealevel;temperature;humidity
56568;BME280;42456;49.956;20.004;2023-05-08T00:01:00;99285.36;;;4.83;86.95
56568;BME280;42456;49.956;20.004;2023-05-08T00:03:26;99281.98;;;4.81;86.64
56568;BME280;42456;49.956;20.004;2023-05-08T00:05:54;99283.23;;;4.82;86.91
56568;BME280;42456;49.956;20.004;2023-05-08T00:08:23;99282.20;;;4.81;86.91
56568;BME280;42456;49.956;20.004;2023-05-08T00:10:50;99279.34;;;4.81;86.25
56568;BME280;42456;49.956;20.004;2023-05-08T00:13:17;99281.79;;;4.80;86.71
56568;BME280;42456;49.956;20.004;2023-05-08T00:15:44;99287.91;;;4.78;86.20
56568;BME280;42456;49.956;20.004;2023-05-08T00:18:11;99287.33;;;4.75;86.39
56568;BME280;42456;49.956;20.004;2023-05-08T00:20:38;99288.55;;;4.73;86.21
56568;BME280;42456;49.956;20.004;2023-05-08T00:23:05;99290.67;;;4.70;86.18
56568;BME280;42456;49.956;20.004;2023-05-08T00:25:32;99287.16;;;4.68;86.29
56568;BME280;42456;49.956;20.004;2023-05-08T00:27:59;99285.77;;;4.68;86.33
56568;BME280;42456;49.956;20.004;2023-05-08T00:30:26;99290.89;;;4.67;85.57
56568;BME280;42456;49.956;20.004;2023-05-08T00:32:53;99296.38;;;4.65;85.57
56568;BME280;42456;49.956;20.004;2023-05-08T00:35:20;99299.73;;;4.62;85.24
56568;BME280;42456;49.956;20.004;2023-05-08T00:37:47;99296.52;;;4.59;85.50
56568;BME280;42456;49.956;20.004;2023-05-08T00:40:14;99302.92;;;4.58;85.16
56568;BME280;42456;49.956;20.004;2023-05-08T00:42:41;99297.48;;;4.57;84.95
56568;BME280;42456;49.956;20.004;2023-05-08T00:45:08;99301.22;;;4.55;85.22
56568;BME280;42456;49.956;20.004;2023-05-08T00:47:35;99295.89;;;4.54;85.18
56568;BME280;42456;49.956;20.004;2023-05-08T00:50:03;99298.71;;;4.53;84.92
56568;BME280;42456;49.956;20.004;2023-05-08T00:52:31;99308.46;;;4.53;84.83
56568;BME280;42456;49.956;20.004;2023-05-08T00:55:01;99306.81;;;4.51;84.27
56568;BME280;42456;49.956;20.004;2023-05-08T00:57:29;99308.29;;;4.51;85.11
56568;BME280;42456;49.956;20.004;2023-05-08T00:59:59;99314.63;;;4.50;85.01
56568;BME280;42456;49.956;20.004;2023-05-08T01:02:28;99310.90;;;4.49;84.88
56568;BME280;42456;49.956;20.004;2023-05-08T01:04:57;99310.79;;;4.49;84.80
56568;BME280;42456;49.956;20.004;2023-05-08T01:07:24;99311.91;;;4.49;84.53
56568;BME280;42456;49.956;20.004;2023-05-08T01:09:51;99321.55;;;4.48;84.19
56568;BME280;42456;49.956;20.004;2023-05-08T01:12:28;99318.15;;;4.47;83.98
56568;BME280;42456;49.956;20.004;2023-05-08T01:20:45;99318.67;;;4.46;83.84
56568;BME280;42456;49.956;20.004;2023-05-08T01:34:45;99321.05;;;4.40;83.82
56568;BME280;42456;49.956;20.004;2023-05-08T01:37:18;99326.59;;;4.40;83.62
56568;BME280;42456;49.956;20.004;2023-05-08T01:42:55;99327.08;;;4.40;83.98
56568;BME280;42456;49.956;20.004;2023-05-08T01:45:31;99331.02;;;4.41;83.78
56568;BME280;42456;49.956;20.004;2023-05-08T01:48:07;99331.72;;;4.42;84.14
56568;BME280;42456;49.956;20.004;2023-05-08T01:50:47;99328.69;;;4.43;84.19
56568;BME280;42456;49.956;20.004;2023-05-08T01:53:29;99326.45;;;4.42;83.91
56568;BME280;42456;49.956;20.004;2023-05-08T01:56:07;99325.54;;;4.41;83.86
56568;BME280;42456;49.956;20.004;2023-05-08T01:58:36;99324.41;;;4.40;83.96
56568;BME280;42456;49.956;20.004;2023-05-08T02:01:04;99327.66;;;4.40;84.26
56568;BME280;42456;49.956;20.004;2023-05-08T02:03:33;99322.23;;;4.41;84.17
56568;BME280;42456;49.956;20.004;2023-05-08T02:06:01;99327.02;;;4.41;83.64
56568;BME280;42456;49.956;20.004;2023-05-08T02:08:29;99326.16;;;4.40;84.24
56568;BME280;42456;49.956;20.004;2023-05-08T02:10:58;99322.13;;;4.41;84.04
56568;BME280;42456;49.956;20.004;2023-05-08T02:13:27;99327.56;;;4.42;83.72
56568;BME280;42456;49.956;20.004;2023-05-08T02:15:57;99323.52;;;4.43;84.33
56568;BME280;42456;49.956;20.004;2023-05-08T02:18:26;99323.14;;;4.44;83.92
56568;BME280;42456;49.956;20.004;2023-05-08T02:20:55;99326.77;;;4.44;83.60
56568;BME280;42456;49.956;20.004;2023-05-08T02:23:24;99330.59;;;4.44;83.63
56568;BME280;42456;49.956;20.004;2023-05-08T02:25:52;99328.52;;;4.42;83.64
56568;BME280;42456;49.956;20.004;2023-05-08T02:28:21;99330.13;;;4.42;83.59
56568;BME280;42456;49.956;20.004;2023-05-08T02:30:50;99330.75;;;4.42;83.79
56568;BME280;42456;49.956;20.004;2023-05-08T02:33:19;99333.63;;;4.42;83.98
56568;BME280;42456;49.956;20.004;2023-05-08T02:35:48;99334.00;;;4.41;83.84
56568;BME280;42456;49.956;20.004;2023-05-08T02:38:18;99334.81;;;4.41;83.97
56568;BME280;42456;49.956;20.004;2023-05-08T02:40:50;99337.58;;;4.41;84.04
56568;BME280;42456;49.956;20.004;2023-05-08T02:43:18;99334.21;;;4.41;83.80
56568;BME280;42456;49.956;20.004;2023-05-08T02:45:58;99337.04;;;4.41;84.05
56568;BME280;42456;49.956;20.004;2023-05-08T02:51:06;99338.16;;;4.41;84.25
56568;BME280;42456;49.956;20.004;2023-05-08T02:53:47;99341.20;;;4.41;84.16
56568;BME280;42456;49.956;20.004;2023-05-08T02:56:38;99335.91;;;4.40;83.91
56568;BME280;42456;49.956;20.004;2023-05-08T02:59:13;99341.88;;;4.39;84.62
56568;BME280;42456;49.956;20.004;2023-05-08T03:01:49;99344.92;;;4.38;83.91
56568;BME280;42456;49.956;20.004;2023-05-08T03:04:30;99345.61;;;4.38;84.69
56568;BME280;42456;49.956;20.004;2023-05-08T03:07:00;99346.24;;;4.37;84.63
56568;BME280;42456;49.956;20.004;2023-05-08T03:09:42;99344.17;;;4.38;84.68
56568;BME280;42456;49.956;20.004;2023-05-08T03:12:15;99342.72;;;4.37;84.68
56568;BME280;42456;49.956;20.004;2023-05-08T03:14:59;99342.52;;;4.36;84.55
56568;BME280;42456;49.956;20.004;2023-05-08T03:17:30;99342.23;;;4.33;84.86
56568;BME280;42456;49.956;20.004;2023-05-08T03:20:02;99338.18;;;4.31;84.46
56568;BME280;42456;49.956;20.004;2023-05-08T03:22:29;99346.69;;;4.30;84.47
56568;BME280;42456;49.956;20.004;2023-05-08T03:25:00;99347.75;;;4.27;84.67
56568;BME280;42456;49.956;20.004;2023-05-08T03:27:28;99346.03;;;4.23;84.60
56568;BME280;42456;49.956;20.004;2023-05-08T03:29:56;99341.88;;;4.22;84.79
56568;BME280;42456;49.956;20.004;2023-05-08T03:32:26;99343.96;;;4.20;84.43
56568;BME280;42456;49.956;20.004;2023-05-08T03:34:54;99343.15;;;4.19;84.94
56568;BME280;42456;49.956;20.004;2023-05-08T03:37:26;99350.27;;;4.18;84.35
56568;BME280;42456;49.956;20.004;2023-05-08T03:39:54;99353.05;;;4.17;84.72
56568;BME280;42456;49.956;20.004;2023-05-08T03:42:25;99352.52;;;4.16;84.53
56568;BME280;42456;49.956;20.004;2023-05-08T03:44:53;99352.51;;;4.15;84.65
56568;BME280;42456;49.956;20.004;2023-05-08T03:47:20;99359.06;;;4.14;84.60
56568;BME280;42456;49.956;20.004;2023-05-08T03:49:48;99357.13;;;4.13;84.10
56568;BME280;42456;49.956;20.004;2023-05-08T03:52:15;99354.79;;;4.12;84.69
56568;BME280;42456;49.956;20.004;2023-05-08T03:54:43;99355.20;;;4.11;84.44
56568;BME280;42456;49.956;20.004;2023-05-08T03:57:10;99357.16;;;4.09;84.48
56568;BME280;42456;49.956;20.004;2023-05-08T03:59:49;99358.54;;;4.08;84.50
56568;BME280;42456;49.956;20.004;2023-05-08T04:02:28;99360.45;;;4.06;84.64
56568;BME280;42456;49.956;20.004;2023-05-08T04:05:05;99363.63;;;4.04;84.76
56568;BME280;42456;49.956;20.004;2023-05-08T04:07:38;99365.45;;;4.02;84.17
56568;BME280;42456;49.956;20.004;2023-05-08T04:10:12;99370.86;;;4.03;84.66
56568;BME280;42456;49.956;20.004;2023-05-08T04:13:04;99370.02;;;4.03;84.62
56568;BME280;42456;49.956;20.004;2023-05-08T04:15:37;99371.79;;;4.04;84.45
56568;BME280;42456;49.956;20.004;2023-05-08T04:18:09;99373.48;;;4.04;84.32
56568;BME280;42456;49.956;20.004;2023-05-08T04:20:39;99375.98;;;4.04;84.17
56568;BME280;42456;49.956;20.004;2023-05-08T04:23:08;99374.08;;;4.04;84.04
56568;BME280;42456;49.956;20.004;2023-05-08T04:25:35;99386.91;;;4.06;83.99
56568;BME280;42456;49.956;20.004;2023-05-08T04:28:04;99394.09;;;4.05;83.38
56568;BME280;42456;49.956;20.004;2023-05-08T04:30:32;99385.15;;;4.05;83.48
56568;BME280;42456;49.956;20.004;2023-05-08T04:33:02;99401.16;;;4.05;83.49
56568;BME280;42456;49.956;20.004;2023-05-08T04:35:29;99402.35;;;4.06;83.16
56568;BME280;42456;49.956;20.004;2023-05-08T04:37:57;99402.89;;;4.07;82.74
56568;BME280;42456;49.956;20.004;2023-05-08T04:40:25;99401.83;;;4.08;82.91
56568;BME280;42456;49.956;20.004;2023-05-08T04:42:52;99409.35;;;4.11;83.13
56568;BME280;42456;49.956;20.004;2023-05-08T04:45:19;99405.27;;;4.16;82.72
56568;BME280;42456;49.956;20.004;2023-05-08T04:47:46;99408.33;;;4.21;82.91
56568;BME280;42456;49.956;20.004;2023-05-08T04:50:13;99414.53;;;4.26;82.84
56568;BME280;42456;49.956;20.004;2023-05-08T04:52:39;99411.34;;;4.30;82.50
56568;BME280;42456;49.956;20.004;2023-05-08T04:55:07;99417.86;;;4.33;82.09
56568;BME280;42456;49.956;20.004;2023-05-08T04:57:34;99421.60;;;4.36;82.57
56568;BME280;42456;49.956;20.004;2023-05-08T05:00:02;99427.38;;;4.40;81.58
56568;BME280;42456;49.956;20.004;2023-05-08T05:02:30;99438.52;;;4.40;81.65
56568;BME280;42456;49.956;20.004;2023-05-08T05:04:57;99434.24;;;4.40;81.47
56568;BME280;42456;49.956;20.004;2023-05-08T05:07:26;99436.44;;;4.41;81.42
56568;BME280;42456;49.956;20.004;2023-05-08T05:09:53;99441.09;;;4.44;81.49
56568;BME280;42456;49.956;20.004;2023-05-08T05:12:20;99433.95;;;4.46;81.01
56568;BME280;42456;49.956;20.004;2023-05-08T05:14:47;99445.95;;;4.50;81.18
56568;BME280;42456;49.956;20.004;2023-05-08T05:17:14;99445.11;;;4.53;80.51
56568;BME280;42456;49.956;20.004;2023-05-08T05:19:41;99448.58;;;4.55;80.83
56568;BME280;42456;49.956;20.004;2023-05-08T05:22:08;99448.85;;;4.58;80.95
56568;BME280;42456;49.956;20.004;2023-05-08T05:24:35;99446.75;;;4.65;81.52
56568;BME280;42456;49.956;20.004;2023-05-08T05:27:02;99446.45;;;4.72;80.95
56568;BME280;42456;49.956;20.004;2023-05-08T05:29:30;99458.40;;;4.77;80.35
56568;BME280;42456;49.956;20.004;2023-05-08T05:31:57;99448.92;;;4.77;80.53
56568;BME280;42456;49.956;20.004;2023-05-08T05:34:24;99466.46;;;4.77;80.16
56568;BME280;42456;49.956;20.004;2023-05-08T05:36:51;99451.80;;;4.78;80.39
56568;BME280;42456;49.956;20.004;2023-05-08T05:39:18;99459.80;;;4.79;79.95
56568;BME280;42456;49.956;20.004;2023-05-08T05:41:44;99453.26;;;4.80;80.00
56568;BME280;42456;49.956;20.004;2023-05-08T05:44:11;99454.70;;;4.82;80.19
56568;BME280;42456;49.956;20.004;2023-05-08T05:46:38;99456.10;;;4.87;80.09
56568;BME280;42456;49.956;20.004;2023-05-08T05:49:08;99454.60;;;4.91;80.04
56568;BME280;42456;49.956;20.004;2023-05-08T05:51:37;99463.89;;;4.93;79.85
56568;BME280;42456;49.956;20.004;2023-05-08T05:54:04;99461.71;;;4.95;80.06
56568;BME280;42456;49.956;20.004;2023-05-08T05:56:31;99464.02;;;4.97;79.52
56568;BME280;42456;49.956;20.004;2023-05-08T05:58:57;99467.27;;;5.01;79.40
56568;BME280;42456;49.956;20.004;2023-05-08T06:01:24;99469.52;;;5.02;79.10
56568;BME280;42456;49.956;20.004;2023-05-08T06:03:54;99471.11;;;5.01;79.08
56568;BME280;42456;49.956;20.004;2023-05-08T06:06:21;99465.67;;;5.02;79.66
56568;BME280;42456;49.956;20.004;2023-05-08T06:08:48;99470.34;;;5.11;79.95
56568;BME280;42456;49.956;20.004;2023-05-08T06:11:15;99475.17;;;5.15;79.27
56568;BME280;42456;49.956;20.004;2023-05-08T06:13:42;99480.95;;;5.13;78.96
56568;BME280;42456;49.956;20.004;2023-05-08T06:16:10;99480.20;;;5.12;78.74
56568;BME280;42456;49.956;20.004;2023-05-08T06:18:37;99485.48;;;5.12;79.12
56568;BME280;42456;49.956;20.004;2023-05-08T06:21:04;99485.59;;;5.13;78.97
56568;BME280;42456;49.956;20.004;2023-05-08T06:23:32;99485.96;;;5.15;79.02
56568;BME280;42456;49.956;20.004;2023-05-08T06:25:58;99483.99;;;5.22;79.26
56568;BME280;42456;49.956;20.004;2023-05-08T06:28:25;99489.18;;;5.32;79.09
56568;BME280;42456;49.956;20.004;2023-05-08T06:30:53;99497.67;;;5.39;78.67
56568;BME280;42456;49.956;20.004;2023-05-08T06:33:22;99499.45;;;5.49;78.25
56568;BME280;42456;49.956;20.004;2023-05-08T06:35:52;99502.44;;;5.55;77.54
56568;BME280;42456;49.956;20.004;2023-05-08T06:38:19;99502.34;;;5.59;77.45
56568;BME280;42456;49.956;20.004;2023-05-08T06:40:47;99504.21;;;5.69;77.40
56568;BME280;42456;49.956;20.004;2023-05-08T06:43:16;99509.71;;;5.82;77.18
56568;BME280;42456;49.956;20.004;2023-05-08T06:45:43;99503.86;;;5.92;76.35
56568;BME280;42456;49.956;20.004;2023-05-08T06:48:12;99508.17;;;6.00;75.85
56568;BME280;42456;49.956;20.004;2023-05-08T06:50:39;99502.56;;;6.05;75.95
56568;BME280;42456;49.956;20.004;2023-05-08T06:53:06;99503.84;;;6.09;75.97
56568;BME280;42456;49.956;20.004;2023-05-08T06:55:34;99509.80;;;6.26;75.49
56568;BME280;42456;49.956;20.004;2023-05-08T06:58:01;99504.91;;;6.39;75.30
56568;BME280;42456;49.956;20.004;2023-05-08T07:00:28;99509.44;;;6.60;75.14
56568;BME280;42456;49.956;20.004;2023-05-08T07:02:55;99512.77;;;6.85;74.40
56568;BME280;42456;49.956;20.004;2023-05-08T07:05:22;99512.60;;;6.98;73.21
56568;BME280;42456;49.956;20.004;2023-05-08T07:07:49;99511.34;;;7.05;73.12
56568;BME280;42456;49.956;20.004;2023-05-08T07:10:16;99504.80;;;7.16;73.30
56568;BME280;42456;49.956;20.004;2023-05-08T07:12:45;99509.26;;;7.31;73.01
56568;BME280;42456;49.956;20.004;2023-05-08T07:15:13;99515.77;;;7.43;72.57
56568;BME280;42456;49.956;20.004;2023-05-08T07:17:52;99515.73;;;7.46;71.34
56568;BME280;42456;49.956;20.004;2023-05-08T07:20:19;99516.27;;;7.46;70.36
56568;BME280;42456;49.956;20.004;2023-05-08T07:22:47;99512.79;;;7.48;70.59
56568;BME280;42456;49.956;20.004;2023-05-08T07:25:14;99521.15;;;7.53;70.91
56568;BME280;42456;49.956;20.004;2023-05-08T07:27:41;99521.59;;;7.58;70.79
56568;BME280;42456;49.956;20.004;2023-05-08T07:30:09;99522.52;;;7.62;70.09
56568;BME280;42456;49.956;20.004;2023-05-08T07:32:36;99517.19;;;7.67;70.53
56568;BME280;42456;49.956;20.004;2023-05-08T07:35:06;99524.16;;;7.80;70.20
56568;BME280;42456;49.956;20.004;2023-05-08T07:37:37;99529.50;;;7.96;70.40
56568;BME280;42456;49.956;20.004;2023-05-08T07:40:05;99526.44;;;8.08;69.19
56568;BME280;42456;49.956;20.004;2023-05-08T07:42:42;99530.01;;;8.24;69.85
56568;BME280;42456;49.956;20.004;2023-05-08T07:45:11;99532.02;;;8.28;69.04
56568;BME280;42456;49.956;20.004;2023-05-08T07:47:57;99526.23;;;8.27;68.83
56568;BME280;42456;49.956;20.004;2023-05-08T07:50:25;99533.64;;;8.26;67.89
56568;BME280;42456;49.956;20.004;2023-05-08T07:52:52;99533.06;;;8.25;67.87
56568;BME280;42456;49.956;20.004;2023-05-08T07:55:19;99532.65;;;8.34;68.07
56568;BME280;42456;49.956;20.004;2023-05-08T07:57:47;99530.61;;;8.35;67.38
56568;BME280;42456;49.956;20.004;2023-05-08T08:00:15;99536.89;;;8.34;67.42
56568;BME280;42456;49.956;20.004;2023-05-08T08:02:43;99539.03;;;8.33;66.90
56568;BME280;42456;49.956;20.004;2023-05-08T08:05:11;99533.27;;;8.42;67.01
56568;BME280;42456;49.956;20.004;2023-05-08T08:07:38;99541.46;;;8.53;66.42
56568;BME280;42456;49.956;20.004;2023-05-08T08:10:06;99535.39;;;8.64;66.13
56568;BME280;42456;49.956;20.004;2023-05-08T08:12:33;99527.27;;;8.75;66.26
56568;BME280;42456;49.956;20.004;2023-05-08T08:15:00;99535.98;;;8.79;65.62
56568;BME280;42456;49.956;20.004;2023-05-08T08:17:27;99528.84;;;8.74;64.93
56568;BME280;42456;49.956;20.004;2023-05-08T08:19:55;99536.36;;;8.68;64.78
56568;BME280;42456;49.956;20.004;2023-05-08T08:22:23;99539.29;;;8.65;64.77
56568;BME280;42456;49.956;20.004;2023-05-08T08:24:54;99541.52;;;8.62;65.14
56568;BME280;42456;49.956;20.004;2023-05-08T08:27:22;99541.43;;;8.56;65.18
56568;BME280;42456;49.956;20.004;2023-05-08T08:29:49;99537.42;;;8.51;65.59
56568;BME280;42456;49.956;20.004;2023-05-08T08:32:30;99533.49;;;8.42;65.64
56568;BME280;42456;49.956;20.004;2023-05-08T08:34:57;99533.52;;;8.37;66.23
56568;BME280;42456;49.956;20.004;2023-05-08T08:37:24;99535.15;;;8.31;65.98
56568;BME280;42456;49.956;20.004;2023-05-08T08:39:52;99539.69;;;8.27;66.25
56568;BME280;42456;49.956;20.004;2023-05-08T08:42:19;99535.28;;;8.29;66.55
56568;BME280;42456;49.956;20.004;2023-05-08T08:44:46;99544.64;;;8.42;66.65
56568;BME280;42456;49.956;20.004;2023-05-08T08:47:15;99531.52;;;8.54;66.29
56568;BME280;42456;49.956;20.004;2023-05-08T08:49:48;99536.27;;;8.72;66.04
56568;BME280;42456;49.956;20.004;2023-05-08T08:54:45;99530.52;;;8.92;65.13
56568;BME280;42456;49.956;20.004;2023-05-08T08:57:13;99532.41;;;8.94;64.52
56568;BME280;42456;49.956;20.004;2023-05-08T08:59:41;99533.50;;;8.89;64.55
56568;BME280;42456;49.956;20.004;2023-05-08T09:02:11;99535.14;;;8.90;64.47
56568;BME280;42456;49.956;20.004;2023-05-08T09:04:40;99542.14;;;8.93;64.87
56568;BME280;42456;49.956;20.004;2023-05-08T09:07:08;99533.40;;;8.95;63.99
56568;BME280;42456;49.956;20.004;2023-05-08T09:09:38;99533.02;;;9.06;64.88
56568;BME280;42456;49.956;20.004;2023-05-08T09:12:11;99537.68;;;9.09;64.63
56568;BME280;42456;49.956;20.004;2023-05-08T09:14:39;99536.41;;;9.00;64.33
56568;BME280;42456;49.956;20.004;2023-05-08T09:17:06;99544.06;;;8.88;63.55
56568;BME280;42456;49.956;20.004;2023-05-08T09:19:33;99542.77;;;8.71;63.94
56568;BME280;42456;49.956;20.004;2023-05-08T09:22:02;99537.65;;;8.62;64.06
56568;BME280;42456;49.956;20.004;2023-05-08T09:24:56;99546.10;;;8.60;63.98
56568;BME280;42456;49.956;20.004;2023-05-08T09:27:24;99549.41;;;8.56;64.03
56568;BME280;42456;49.956;20.004;2023-05-08T09:29:58;99548.93;;;8.51;63.84
56568;BME280;42456;49.956;20.004;2023-05-08T09:32:28;99549.58;;;8.41;63.67
56568;BME280;42456;49.956;20.004;2023-05-08T09:34:59;99554.64;;;8.40;64.01
56568;BME280;42456;49.956;20.004;2023-05-08T09:37:27;99554.29;;;8.42;63.58
56568;BME280;42456;49.956;20.004;2023-05-08T09:40:12;99546.29;;;8.48;64.24
56568;BME280;42456;49.956;20.004;2023-05-08T09:42:40;99546.23;;;8.54;64.31
56568;BME280;42456;49.956;20.004;2023-05-08T09:45:07;99545.95;;;8.60;64.51
56568;BME280;42456;49.956;20.004;2023-05-08T09:47:35;99551.89;;;8.66;64.41
56568;BME280;42456;49.956;20.004;2023-05-08T09:50:09;99551.11;;;8.68;63.40
56568;BME280;42456;49.956;20.004;2023-05-08T09:52:37;99552.30;;;8.64;62.74
56568;BME280;42456;49.956;20.004;2023-05-08T09:55:06;99552.67;;;8.59;63.14
56568;BME280;42456;49.956;20.004;2023-05-08T09:57:38;99554.82;;;8.53;63.57
56568;BME280;42456;49.956;20.004;2023-05-08T10:00:11;99562.02;;;8.46;63.48
56568;BME280;42456;49.956;20.004;2023-05-08T10:02:41;99556.84;;;8.38;63.68
56568;BME280;42456;49.956;20.004;2023-05-08T10:05:32;99551.83;;;8.36;64.13
56568;BME280;42456;49.956;20.004;2023-05-08T10:08:18;99553.09;;;8.39;64.73
56568;BME280;42456;49.956;20.004;2023-05-08T10:10:45;99557.22;;;8.43;64.78
56568;BME280;42456;49.956;20.004;2023-05-08T10:13:13;99558.78;;;8.48;64.71
56568;BME280;42456;49.956;20.004;2023-05-08T10:15:41;99558.08;;;8.54;64.20
56568;BME280;42456;49.956;20.004;2023-05-08T10:18:10;99550.83;;;8.60;64.10
56568;BME280;42456;49.956;20.004;2023-05-08T10:20:39;99550.77;;;8.70;64.42
56568;BME280;42456;49.956;20.004;2023-05-08T10:23:10;99556.25;;;8.89;64.66
56568;BME280;42456;49.956;20.004;2023-05-08T10:25:55;99549.47;;;9.03;63.73
56568;BME280;42456;49.956;20.004;2023-05-08T10:28:32;99543.05;;;9.14;64.24
56568;BME280;42456;49.956;20.004;2023-05-08T10:31:03;99546.54;;;9.23;64.09
56568;BME280;42456;49.956;20.004;2023-05-08T10:33:33;99544.48;;;9.23;63.50
56568;BME280;42456;49.956;20.004;2023-05-08T10:36:01;99548.92;;;9.16;62.97
56568;BME280;42456;49.956;20.004;2023-05-08T10:38:29;99547.40;;;9.05;62.59
56568;BME280;42456;49.956;20.004;2023-05-08T10:40:59;99539.10;;;9.04;63.41
56568;BME280;42456;49.956;20.004;2023-05-08T10:43:28;99537.53;;;9.13;63.44
56568;BME280;42456;49.956;20.004;2023-05-08T10:45:56;99533.55;;;9.26;63.47
56568;BME280;42456;49.956;20.004;2023-05-08T10:48:42;99530.67;;;9.44;63.78
56568;BME280;42456;49.956;20.004;2023-05-08T10:51:32;99534.70;;;9.58;63.44
56568;BME280;42456;49.956;20.004;2023-05-08T10:54:05;99535.80;;;9.57;62.25
56568;BME280;42456;49.956;20.004;2023-05-08T10:56:36;99530.78;;;9.54;62.29
56568;BME280;42456;49.956;20.004;2023-05-08T10:59:04;99534.22;;;9.54;62.49
56568;BME280;42456;49.956;20.004;2023-05-08T11:01:31;99530.64;;;9.60;62.05
56568;BME280;42456;49.956;20.004;2023-05-08T11:03:58;99542.66;;;9.69;61.44
56568;BME280;42456;49.956;20.004;2023-05-08T11:06:46;99530.31;;;9.75;60.56
56568;BME280;42456;49.956;20.004;2023-05-08T11:09:22;99525.27;;;9.80;60.57
56568;BME280;42456;49.956;20.004;2023-05-08T11:12:05;99529.04;;;9.87;60.94
56568;BME280;42456;49.956;20.004;2023-05-08T11:14:34;99527.25;;;9.91;61.26
56568;BME280;42456;49.956;20.004;2023-05-08T11:17:03;99528.13;;;9.97;61.45
56568;BME280;42456;49.956;20.004;2023-05-08T11:19:30;99538.02;;;10.01;59.89
56568;BME280;42456;49.956;20.004;2023-05-08T11:38:32;99527.17;;;10.14;58.79
56568;BME280;42456;49.956;20.004;2023-05-08T11:46:15;99514.92;;;10.20;58.94
56568;BME280;42456;49.956;20.004;2023-05-08T11:48:43;99510.88;;;10.37;59.57
56568;BME280;42456;49.956;20.004;2023-05-08T11:51:10;99515.45;;;10.55;59.30
56568;BME280;42456;49.956;20.004;2023-05-08T11:53:39;99517.64;;;10.66;58.36
56568;BME280;42456;49.956;20.004;2023-05-08T11:56:06;99511.86;;;10.67;57.26
56568;BME280;42456;49.956;20.004;2023-05-08T11:58:33;99506.98;;;10.63;57.73
56568;BME280;42456;49.956;20.004;2023-05-08T12:01:02;99504.54;;;10.62;58.49
56568;BME280;42456;49.956;20.004;2023-05-08T12:03:29;99505.52;;;10.53;57.92
56568;BME280;42456;49.956;20.004;2023-05-08T12:05:58;99508.75;;;10.45;57.57
56568;BME280;42456;49.956;20.004;2023-05-08T12:08:25;99508.85;;;10.39;57.89
56568;BME280;42456;49.956;20.004;2023-05-08T12:10:56;99511.27;;;10.40;58.08
56568;BME280;42456;49.956;20.004;2023-05-08T12:13:28;99513.09;;;10.40;57.80
56568;BME280;42456;49.956;20.004;2023-05-08T12:15:59;99507.49;;;10.43;58.27
56568;BME280;42456;49.956;20.004;2023-05-08T12:18:27;99511.19;;;10.49;58.01
56568;BME280;42456;49.956;20.004;2023-05-08T12:20:58;99511.14;;;10.58;58.14
56568;BME280;42456;49.956;20.004;2023-05-08T12:23:27;99508.55;;;10.66;57.96
56568;BME280;42456;49.956;20.004;2023-05-08T12:25:58;99505.27;;;10.75;57.53
56568;BME280;42456;49.956;20.004;2023-05-08T12:28:26;99511.59;;;10.86;57.23
56568;BME280;42456;49.956;20.004;2023-05-08T12:30:53;99508.19;;;10.97;56.98
56568;BME280;42456;49.956;20.004;2023-05-08T12:33:20;99507.02;;;11.02;56.19
56568;BME280;42456;49.956;20.004;2023-05-08T12:35:48;99503.30;;;11.04;56.39
56568;BME280;42456;49.956;20.004;2023-05-08T12:38:15;99500.23;;;11.07;55.75
56568;BME280;42456;49.956;20.004;2023-05-08T12:40:44;99501.77;;;11.06;55.55
56568;BME280;42456;49.956;20.004;2023-05-08T12:43:11;99505.61;;;11.01;55.76
56568;BME280;42456;49.956;20.004;2023-05-08T12:45:39;99499.42;;;10.97;55.73
56568;BME280;42456;49.956;20.004;2023-05-08T12:48:09;99502.57;;;10.90;55.65
56568;BME280;42456;49.956;20.004;2023-05-08T12:50:40;99495.23;;;10.81;55.23
56568;BME280;42456;49.956;20.004;2023-05-08T12:53:10;99502.34;;;10.72;55.84
56568;BME280;42456;49.956;20.004;2023-05-08T12:55:38;99498.95;;;10.65;55.32
56568;BME280;42456;49.956;20.004;2023-05-08T13:00:42;99496.92;;;10.69;56.45
56568;BME280;42456;49.956;20.004;2023-05-08T13:03:12;99498.98;;;10.79;56.66
56568;BME280;42456;49.956;20.004;2023-05-08T13:05:43;99497.11;;;10.86;56.80
56568;BME280;42456;49.956;20.004;2023-05-08T13:08:11;99494.42;;;10.86;56.44
56568;BME280;42456;49.956;20.004;2023-05-08T13:10:53;99498.60;;;10.79;56.10
56568;BME280;42456;49.956;20.004;2023-05-08T13:13:22;99494.72;;;10.72;56.19
56568;BME280;42456;49.956;20.004;2023-05-08T13:15:51;99492.21;;;10.68;56.69
56568;BME280;42456;49.956;20.004;2023-05-08T13:18:20;99495.77;;;10.70;56.80
56568;BME280;42456;49.956;20.004;2023-05-08T13:20:47;99496.35;;;10.71;56.70
56568;BME280;42456;49.956;20.004;2023-05-08T13:23:14;99495.70;;;10.73;56.48
56568;BME280;42456;49.956;20.004;2023-05-08T13:25:41;99497.55;;;10.73;56.08
56568;BME280;42456;49.956;20.004;2023-05-08T13:28:09;99494.63;;;10.70;55.87
56568;BME280;42456;49.956;20.004;2023-05-08T13:30:36;99493.36;;;10.67;55.91
56568;BME280;42456;49.956;20.004;2023-05-08T13:33:04;99493.61;;;10.60;56.28
56568;BME280;42456;49.956;20.004;2023-05-08T13:35:32;99495.02;;;10.54;56.07
56568;BME280;42456;49.956;20.004;2023-05-08T13:37:59;99498.48;;;10.48;56.03
56568;BME280;42456;49.956;20.004;2023-05-08T13:40:27;99495.27;;;10.38;55.71
56568;BME280;42456;49.956;20.004;2023-05-08T13:42:54;99501.59;;;10.28;55.27
56568;BME280;42456;49.956;20.004;2023-05-08T13:45:21;99502.94;;;10.22;55.01
56568;BME280;42456;49.956;20.004;2023-05-08T13:47:49;99499.47;;;10.21;55.09
56568;BME280;42456;49.956;20.004;2023-05-08T13:50:17;99496.41;;;10.26;55.66
56568;BME280;42456;49.956;20.004;2023-05-08T13:52:48;99493.09;;;10.34;55.64
56568;BME280;42456;49.956;20.004;2023-05-08T13:55:19;99489.81;;;10.45;56.29
56568;BME280;42456;49.956;20.004;2023-05-08T13:57:47;99487.70;;;10.57;56.49
56568;BME280;42456;49.956;20.004;2023-05-08T14:00:14;99483.58;;;10.67;56.19